Szeged, Hongarije

9:09 AM CET op 01 november 2014 (GMT +0100)
Szeged | Change Station
CLOSE
Current Station
Persoonlijk weerstation
Location: Szeged, CSONGRaD
Geometrische hoogte: 262 ft
Nabije weerstations

Hoogte 262 ft 46.24 °N, 20.11 °E | Updated 1 second ago

Overcast
Geheel bewolkt
43.5 °F
Voelt als 44 °F
N
0.0
Wind Variabel Wind van noord
Gusts 0.0 mijl/u

Vandaag
Hoog -- | Laag -- °F
--% Kans op neerslag
Gisteren
Hoog -- | Laag -- °F
Precip. -- inches
6:20 AM 4:25 PM
Wassende maan, 64% visible
Druk 30.36 inches
Zicht 1.9 mijlen
Wolken Geheel bewolkt 3600 ft
Gevoelstemperatuur 44 °F
Dauwpunt 42 °F
Vochtigheid 95%
Neerslag 0.00 inches
Dikte sneeuw Niet beschikbaar.
UV 0 van de 12
Pollen Niet beschikbaar.
Luchtkwaliteit Niet beschikbaar.
Flu Activity Niet beschikbaar.
METAR LRAR 010800Z VRB02KT 3000 BR OVC036 07/07 Q1028

More Conditions Fewer Conditions

Druk 30.36 inches
Zicht 1.9 mijlen
Wolken Geheel bewolkt 3600 ft
Gevoelstemperatuur 44 °F
Dauwpunt 42 °F
Vochtigheid 95%
Neerslag 0.00 inches
Dikte sneeuw Niet beschikbaar.
UV 0 van de 12
Pollen Niet beschikbaar.
Luchtkwaliteit Niet beschikbaar.
Flu Activity Niet beschikbaar.
METAR LRAR 010800Z VRB02KT 3000 BR OVC036 07/07 Q1028

More Conditions Fewer Conditions

10-Day Weather Forecast

Almanac

Astronomie

Nov. 01, 2014 Opkomst Ondergang
Werkelijke tijd
Burgerlijke schemering
Nautische schemering
Astronomische schemering
Maan
Golflengte van het zichtbare licht
Daglengte
Tomorrow will be .
, % of the Moon is Illuminated

Extremen vandaag

Country Highs Country Lows

Community

WunderPhotos

Upload Photos

1,766,866 foto’s ge-upload!

WunderBlogs® & News

Nearby

Luchtkwaliteit

  Luchtkwaliteit LK-index Verontreinigende stof
Not available.

Dikte sneeuw

Station Depth Geometrische hoogte

Aardbevingen

Stad Distance Mag. Time & Date
Minimum magnitude displayed is 2.5.

Watertemperatuur langs de kust

Plaats Temperatuur

Nabije weerstations